Time;durP1;ratioP1;P1;durP2;ratioP2;P2;SDS_P1;SDS_P2;PMS_P1;PMS_P2;Temp;Humidity;BMP_temperature;BMP_pressure;BME280_temperature;BME280_humidity;BME280_pressure;Samples;Min_cycle;Max_cycle;Signal;HPM_P1;HPM_P2
2024/04/20 00:00:50;;;;;;;3.47;1.50;;;8.80;99.90;;;;;;5528400;25;20470;-57
2024/04/20 00:03:18;;;;;;;2.87;1.00;;;8.70;99.90;;;;;;5528446;25;20551;-57
2024/04/20 00:05:47;;;;;;;5.03;1.40;;;8.60;99.90;;;;;;5528235;25;20466;-57
2024/04/20 00:08:15;;;;;;;1.57;0.77;;;8.60;99.90;;;;;;5528580;25;20457;-56
2024/04/20 00:10:46;;;;;;;3.97;1.27;;;8.60;99.90;;;;;;5528184;25;21108;-57
2024/04/20 00:13:15;;;;;;;4.07;1.20;;;8.60;99.90;;;;;;5528493;25;20614;-57
2024/04/20 00:15:44;;;;;;;1.80;1.40;;;8.60;99.90;;;;;;5527982;25;20446;-57
2024/04/20 00:18:13;;;;;;;3.50;1.20;;;8.50;99.90;;;;;;5528084;25;20559;-57
2024/04/20 00:20:41;;;;;;;3.93;1.00;;;8.50;99.90;;;;;;5528160;25;20466;-57
2024/04/20 00:23:10;;;;;;;3.20;0.90;;;8.50;99.90;;;;;;5528187;25;20783;-57
2024/04/20 00:25:39;;;;;;;3.63;0.87;;;8.40;99.90;;;;;;5527934;25;20510;-57
2024/04/20 00:28:10;;;;;;;1.60;1.10;;;8.50;99.90;;;;;;5528078;25;20493;-57
2024/04/20 00:30:39;;;;;;;6.73;1.63;;;8.40;99.90;;;;;;5528010;25;20470;-56
2024/04/20 00:33:07;;;;;;;2.90;1.60;;;8.40;99.90;;;;;;5527855;25;20454;-57
2024/04/20 00:35:40;;;;;;;4.37;1.10;;;8.40;99.90;;;;;;5528024;25;20510;-57
2024/04/20 00:38:09;;;;;;;2.40;1.10;;;8.40;99.90;;;;;;5528109;25;20987;-57
2024/04/20 00:40:37;;;;;;;1.40;0.80;;;8.40;99.90;;;;;;5527939;25;20571;-57
2024/04/20 00:43:17;;;;;;;3.97;1.13;;;8.40;99.90;;;;;;5528108;25;20462;-58
2024/04/20 00:45:46;;;;;;;2.00;1.27;;;8.40;99.90;;;;;;5528061;25;20498;-58
2024/04/20 00:48:15;;;;;;;1.23;0.87;;;8.40;99.90;;;;;;5527785;25;20446;-58
2024/04/20 00:50:43;;;;;;;3.00;1.10;;;8.30;99.90;;;;;;5527867;25;20458;-58
2024/04/20 00:53:16;;;;;;;2.53;1.00;;;8.30;99.90;;;;;;5527645;25;20509;-57
2024/04/20 00:55:45;;;;;;;2.43;1.30;;;8.30;99.90;;;;;;5527894;25;20506;-58
2024/04/20 00:58:19;;;;;;;3.77;2.17;;;8.30;99.90;;;;;;5527744;25;20454;-58
2024/04/20 01:00:48;;;;;;;1.43;1.20;;;8.30;99.90;;;;;;5525925;25;20458;-57
2024/04/20 01:03:17;;;;;;;1.47;1.37;;;8.30;99.90;;;;;;5527810;25;20462;-57
2024/04/20 01:05:46;;;;;;;1.93;1.27;;;8.30;99.90;;;;;;5527707;25;20501;-58
2024/04/20 01:08:14;;;;;;;1.77;0.80;;;8.20;99.90;;;;;;5527750;25;20992;-57
2024/04/20 01:10:43;;;;;;;2.97;1.30;;;8.20;99.90;;;;;;5527416;25;21117;-57
2024/04/20 01:13:11;;;;;;;2.10;0.90;;;8.10;99.90;;;;;;5527529;25;20835;-57
2024/04/20 01:15:42;;;;;;;1.60;1.23;;;8.10;99.90;;;;;;5527505;25;20555;-58
2024/04/20 01:18:11;;;;;;;3.27;1.30;;;8.10;99.90;;;;;;5527535;25;20495;-58
2024/04/20 01:20:40;;;;;;;1.00;0.90;;;8.10;99.90;;;;;;5526949;25;20549;-57
2024/04/20 01:23:08;;;;;;;2.20;1.17;;;8.00;99.90;;;;;;5527256;25;20439;-58
2024/04/20 01:25:38;;;;;;;2.47;1.00;;;8.00;99.90;;;;;;5527301;25;20555;-57
2024/04/20 01:28:09;;;;;;;2.00;0.93;;;8.00;99.90;;;;;;5527195;25;20498;-58
2024/04/20 01:30:38;;;;;;;2.67;1.03;;;8.00;99.90;;;;;;5527111;25;20478;-58
2024/04/20 01:33:06;;;;;;;3.40;1.40;;;8.00;99.90;;;;;;5527222;25;20563;-58
2024/04/20 01:35:37;;;;;;;4.37;1.30;;;8.10;99.90;;;;;;5527182;25;20450;-57
2024/04/20 01:38:06;;;;;;;3.30;1.10;;;8.00;99.90;;;;;;5527030;25;20454;-58
2024/04/20 01:40:35;;;;;;;2.47;1.10;;;8.00;99.90;;;;;;5527053;25;20493;-58
2024/04/20 01:43:03;;;;;;;1.37;0.83;;;8.10;99.90;;;;;;5526938;25;20972;-58
2024/04/20 01:45:34;;;;;;;2.97;1.20;;;8.00;99.90;;;;;;5526901;25;20458;-58
2024/04/20 01:48:03;;;;;;;3.23;1.13;;;8.10;99.90;;;;;;5527040;25;20458;-58
2024/04/20 01:50:31;;;;;;;4.10;1.23;;;8.10;99.90;;;;;;5526924;25;20509;-57
2024/04/20 01:53:00;;;;;;;1.50;1.00;;;8.00;99.90;;;;;;5526899;25;21007;-58
2024/04/20 01:55:28;;;;;;;5.57;1.53;;;8.00;99.90;;;;;;5526598;25;20446;-58
2024/04/20 02:00:40;;;;;;;2.43;0.80;;;8.00;99.90;;;;;;5523731;25;20966;-57
2024/04/20 02:03:11;;;;;;;3.13;1.10;;;8.00;99.90;;;;;;5526750;25;20502;-58
2024/04/20 02:05:39;;;;;;;1.73;1.10;;;8.10;99.90;;;;;;5526641;25;20790;-57
2024/04/20 02:08:09;;;;;;;3.27;1.00;;;8.00;99.90;;;;;;5526616;25;20565;-57
2024/04/20 02:10:37;;;;;;;3.67;1.10;;;8.00;99.90;;;;;;5525410;25;21008;-57
2024/04/20 02:13:06;;;;;;;4.10;1.23;;;8.00;99.90;;;;;;5526406;25;20563;-57
2024/04/20 02:15:35;;;;;;;1.20;0.90;;;8.00;99.90;;;;;;5526412;25;21102;-57
2024/04/20 02:18:06;;;;;;;3.00;1.43;;;8.00;99.90;;;;;;5526495;25;20458;-57
2024/04/20 02:20:35;;;;;;;2.73;1.50;;;8.00;99.90;;;;;;5526134;25;20583;-57
2024/04/20 02:23:03;;;;;;;3.43;1.40;;;8.10;99.90;;;;;;5526025;25;20585;-57
2024/04/20 02:25:32;;;;;;;3.20;1.47;;;8.10;99.90;;;;;;5526481;25;21075;-56
2024/04/20 02:28:00;;;;;;;1.53;1.03;;;8.10;99.90;;;;;;5526681;25;20486;-57
2024/04/20 02:30:29;;;;;;;4.20;1.53;;;8.10;99.90;;;;;;5526169;25;20494;-57
2024/04/20 02:32:57;;;;;;;4.53;1.40;;;8.20;99.90;;;;;;5526256;25;20451;-57
2024/04/20 02:35:28;;;;;;;2.53;1.30;;;8.20;99.90;;;;;;5526097;25;20457;-57
2024/04/20 02:37:57;;;;;;;2.87;1.67;;;8.20;99.90;;;;;;5526277;25;21055;-57
2024/04/20 02:40:25;;;;;;;3.20;1.27;;;8.30;99.90;;;;;;5526114;25;20466;-57
2024/04/20 02:42:54;;;;;;;1.90;1.30;;;8.30;99.90;;;;;;5526220;25;20544;-57
2024/04/20 02:45:22;;;;;;;5.33;1.60;;;8.30;99.90;;;;;;5526424;25;20536;-57
2024/04/20 02:47:51;;;;;;;6.70;1.53;;;8.20;99.90;;;;;;5526052;25;20494;-57
2024/04/20 02:50:20;;;;;;;1.30;1.20;;;8.30;99.90;;;;;;5525930;25;20517;-57
2024/04/20 02:52:51;;;;;;;3.80;1.73;;;8.20;99.90;;;;;;5526091;25;20495;-57
2024/04/20 02:55:19;;;;;;;2.47;1.30;;;8.20;99.90;;;;;;5526186;25;20470;-57
2024/04/20 02:57:49;;;;;;;3.37;2.23;;;8.30;99.90;;;;;;5526088;25;20551;-57
2024/04/20 03:00:17;;;;;;;2.27;1.57;;;8.30;99.90;;;;;;5525659;25;20470;-57
2024/04/20 03:02:46;;;;;;;2.97;1.40;;;8.30;99.90;;;;;;5526064;25;20559;-57
2024/04/20 03:05:12;;;;;;;2.50;1.27;;;8.30;99.90;;;;;;5525805;25;20502;-57
2024/04/20 03:07:40;;;;;;;5.03;1.13;;;8.30;99.90;;;;;;5525811;25;21104;-57
2024/04/20 03:10:12;;;;;;;1.80;1.20;;;8.30;99.90;;;;;;5525554;25;20276;-56
2024/04/20 03:12:40;;;;;;;2.07;1.10;;;8.30;99.90;;;;;;5525537;25;20446;-57
2024/04/20 03:15:09;;;;;;;3.87;1.47;;;8.30;99.90;;;;;;5525541;25;20466;-56
2024/04/20 03:17:37;;;;;;;2.57;1.53;;;8.30;99.90;;;;;;5525454;25;20559;-57
2024/04/20 03:20:06;;;;;;;2.60;1.80;;;8.30;99.90;;;;;;5525209;25;20514;-57
2024/04/20 03:22:35;;;;;;;10.73;7.13;;;8.30;99.90;;;;;;5525184;25;20502;-57
2024/04/20 03:25:03;;;;;;;22.93;19.00;;;8.20;99.90;;;;;;5529055;25;20990;-56
2024/04/20 03:27:34;;;;;;;7.33;5.03;;;8.20;99.90;;;;;;5529032;25;20466;-56
2024/04/20 03:30:03;;;;;;;7.07;2.70;;;8.20;99.90;;;;;;5528663;25;20473;-57
2024/04/20 03:32:31;;;;;;;8.53;3.87;;;8.20;99.90;;;;;;5528896;25;20442;-57
2024/04/20 03:35:00;;;;;;;4.50;3.47;;;8.20;99.90;;;;;;5529002;25;20446;-57
2024/04/20 03:37:28;;;;;;;4.40;1.80;;;8.30;99.90;;;;;;5528701;25;21043;-56
2024/04/20 03:39:57;;;;;;;3.70;1.73;;;8.30;99.90;;;;;;5528473;25;20579;-57
2024/04/20 03:42:25;;;;;;;4.97;1.77;;;8.30;99.90;;;;;;5528785;25;20562;-57
2024/04/20 03:44:56;;;;;;;4.70;1.37;;;8.30;99.90;;;;;;5528808;25;20581;-57
2024/04/20 03:47:22;;;;;;;3.37;1.47;;;8.20;99.90;;;;;;5528974;25;20506;-57
2024/04/20 03:49:51;;;;;;;4.47;1.37;;;8.20;99.90;;;;;;5528900;25;20474;-57
2024/04/20 03:52:19;;;;;;;4.23;1.70;;;8.20;99.90;;;;;;5528709;25;20221;-57
2024/04/20 03:54:47;;;;;;;7.20;1.87;;;8.20;99.90;;;;;;5529055;25;20555;-58
2024/04/20 03:57:16;;;;;;;2.30;1.77;;;8.20;99.90;;;;;;5528847;25;20466;-57
2024/04/20 03:59:44;;;;;;;2.23;2.00;;;8.20;99.90;;;;;;5528487;25;21027;-56
2024/04/20 04:02:15;;;;;;;2.00;1.40;;;8.10;99.90;;;;;;5528439;25;20930;-57
2024/04/20 04:04:44;;;;;;;4.90;1.30;;;8.10;99.90;;;;;;5528748;25;20462;-57
2024/04/20 04:07:13;;;;;;;2.60;1.47;;;8.10;99.90;;;;;;5528346;25;20880;-57
2024/04/20 04:09:41;;;;;;;2.93;1.17;;;8.10;99.90;;;;;;5528329;25;20450;-57
2024/04/20 04:12:11;;;;;;;3.70;1.57;;;8.20;99.90;;;;;;5528441;25;20450;-58
2024/04/20 04:14:40;;;;;;;2.80;1.17;;;8.20;99.90;;;;;;5528295;25;20446;-58
2024/04/20 04:17:08;;;;;;;2.63;1.10;;;8.20;99.90;;;;;;5528257;25;20448;-58
2024/04/20 04:19:39;;;;;;;2.20;1.43;;;8.30;99.90;;;;;;5528265;25;20441;-58
2024/04/20 04:22:05;;;;;;;2.00;1.13;;;8.30;99.90;;;;;;5528225;25;20454;-59
2024/04/20 04:24:34;;;;;;;1.73;1.30;;;8.40;99.90;;;;;;5528281;25;20827;-58
2024/04/20 04:27:12;;;;;;;3.67;1.60;;;8.40;99.90;;;;;;5527988;25;20567;-58
2024/04/20 04:29:41;;;;;;;4.40;1.30;;;8.40;99.90;;;;;;5528096;25;20567;-58
2024/04/20 04:32:10;;;;;;;1.40;0.90;;;8.40;99.90;;;;;;5528158;25;20495;-57
2024/04/20 04:34:41;;;;;;;1.60;1.30;;;8.40;99.90;;;;;;5527951;25;20513;-57
2024/04/20 04:37:10;;;;;;;2.07;1.50;;;8.40;99.90;;;;;;5528179;25;20450;-57
2024/04/20 04:39:38;;;;;;;2.17;1.40;;;8.40;99.90;;;;;;5527971;25;20446;-57
2024/04/20 04:42:07;;;;;;;3.10;1.53;;;8.40;99.90;;;;;;5527919;25;20999;-58
2024/04/20 04:44:37;;;;;;;2.17;1.30;;;8.40;99.90;;;;;;5527945;25;20439;-57
2024/04/20 04:47:06;;;;;;;4.07;1.10;;;8.40;99.90;;;;;;5528044;25;20495;-57
2024/04/20 04:49:34;;;;;;;2.63;0.90;;;8.40;99.90;;;;;;5528006;25;20494;-57
2024/04/20 04:52:06;;;;;;;2.50;1.57;;;8.40;99.90;;;;;;5527960;25;20458;-58
2024/04/20 04:54:34;;;;;;;5.67;1.70;;;8.40;99.90;;;;;;5527848;25;20499;-57
2024/04/20 04:57:03;;;;;;;2.87;1.50;;;8.50;99.90;;;;;;5527971;25;20856;-57
2024/04/20 04:59:31;;;;;;;1.33;1.00;;;8.40;99.90;;;;;;5527916;25;20450;-57
2024/04/20 05:02:00;;;;;;;4.70;1.20;;;8.40;99.90;;;;;;5527539;25;21099;-57
2024/04/20 05:04:29;;;;;;;2.07;1.30;;;8.40;99.90;;;;;;5527883;25;20450;-57
2024/04/20 05:06:58;;;;;;;2.70;1.40;;;8.40;99.90;;;;;;5527714;25;20509;-57
2024/04/20 05:09:31;;;;;;;2.63;0.90;;;8.40;99.90;;;;;;5527465;25;20441;-57
2024/04/20 05:12:00;;;;;;;1.00;0.70;;;8.40;99.90;;;;;;5527776;25;20507;-57
2024/04/20 05:14:27;;;;;;;10.47;9.47;;;8.40;99.90;;;;;;5527433;25;20498;-57
2024/04/20 05:16:55;;;;;;;10.13;9.20;;;8.40;99.90;;;;;;5526996;25;20450;-56
2024/04/20 05:19:24;;;;;;;5.83;2.57;;;8.50;99.90;;;;;;5527420;25;20498;-58
2024/04/20 05:21:53;;;;;;;2.80;1.83;;;8.50;99.90;;;;;;5527384;25;21022;-56
2024/04/20 05:24:24;;;;;;;4.70;1.60;;;8.50;99.90;;;;;;5527175;25;20458;-57
2024/04/20 05:26:55;;;;;;;2.23;1.17;;;8.50;99.90;;;;;;5527349;25;20855;-57
2024/04/20 05:29:24;;;;;;;2.30;1.30;;;8.50;99.90;;;;;;5527346;25;20558;-57
2024/04/20 05:31:52;;;;;;;1.73;1.27;;;8.50;99.90;;;;;;5526950;25;20470;-57
2024/04/20 05:34:20;;;;;;;3.70;1.13;;;8.60;99.90;;;;;;5526900;25;20442;-57
2024/04/20 05:36:49;;;;;;;2.77;1.20;;;8.60;99.90;;;;;;5526836;25;20450;-57
2024/04/20 05:39:18;;;;;;;2.30;0.90;;;8.60;99.90;;;;;;5526895;25;20563;-57
2024/04/20 05:41:47;;;;;;;2.53;1.20;;;8.70;99.90;;;;;;5527142;25;20510;-57
2024/04/20 05:44:18;;;;;;;1.33;0.90;;;8.80;99.90;;;;;;5527086;25;20876;-57
2024/04/20 05:46:46;;;;;;;1.90;0.83;;;8.80;99.90;;;;;;5525994;25;20502;-57
2024/04/20 05:49:15;;;;;;;2.03;1.40;;;8.80;99.90;;;;;;5526869;25;20552;-58
2024/04/20 05:51:43;;;;;;;1.90;1.50;;;8.80;99.90;;;;;;5526790;25;21096;-57
2024/04/20 05:54:12;;;;;;;2.93;1.07;;;8.80;99.90;;;;;;5526752;25;20934;-57
2024/04/20 05:56:40;;;;;;;2.63;1.07;;;8.80;99.90;;;;;;5526814;25;20779;-57
2024/04/20 05:59:09;;;;;;;2.77;0.60;;;8.80;99.90;;;;;;5527771;25;20458;-57
2024/04/20 06:01:40;;;;;;;4.20;0.90;;;8.80;99.90;;;;;;5528935;25;20454;-57
2024/04/20 06:04:08;;;;;;;1.00;0.60;;;8.90;99.90;;;;;;5528831;25;20457;-57
2024/04/20 06:06:37;;;;;;;4.27;1.00;;;8.90;99.90;;;;;;5527063;25;20502;-57
2024/04/20 06:09:08;;;;;;;2.53;0.93;;;9.00;99.90;;;;;;5526877;25;20462;-57
2024/04/20 06:11:36;;;;;;;2.30;1.07;;;9.00;99.90;;;;;;5526690;25;20458;-57
2024/04/20 06:14:05;;;;;;;2.57;0.90;;;9.10;99.90;;;;;;5526665;25;20498;-58
2024/04/20 06:16:33;;;;;;;4.87;1.53;;;9.10;99.90;;;;;;5526304;25;20446;-57
2024/04/20 06:19:04;;;;;;;6.93;0.90;;;9.20;99.90;;;;;;5526612;25;20498;-56
2024/04/20 06:21:33;;;;;;;3.87;1.60;;;9.20;99.90;;;;;;5526842;25;21000;-57
2024/04/20 06:24:01;;;;;;;2.63;0.80;;;9.20;99.90;;;;;;5526445;25;20490;-57
2024/04/20 06:26:30;;;;;;;4.00;0.90;;;9.30;99.90;;;;;;5526513;25;20464;-57
2024/04/20 06:28:59;;;;;;;3.93;1.17;;;9.30;99.90;;;;;;5526269;25;20515;-56
2024/04/20 06:31:27;;;;;;;4.33;1.33;;;9.40;99.90;;;;;;5526174;25;20458;-57
2024/04/20 06:33:55;;;;;;;5.13;1.50;;;9.40;99.90;;;;;;5526416;25;20455;-57
2024/04/20 06:36:27;;;;;;;3.10;0.90;;;9.50;99.90;;;;;;5526134;25;20529;-57
2024/04/20 06:38:55;;;;;;;2.30;1.30;;;9.50;99.90;;;;;;5526460;25;20450;-56
2024/04/20 06:41:23;;;;;;;3.77;1.03;;;9.50;99.90;;;;;;5526182;25;20474;-57
2024/04/20 06:43:57;;;;;;;2.33;1.03;;;9.60;99.90;;;;;;5526050;25;20976;-57
2024/04/20 06:46:26;;;;;;;3.17;0.90;;;9.60;99.90;;;;;;5526252;25;20734;-56
2024/04/20 06:48:55;;;;;;;4.10;1.37;;;9.60;99.90;;;;;;5526040;25;20757;-57
2024/04/20 06:51:23;;;;;;;4.67;1.33;;;9.60;99.90;;;;;;5525820;25;20457;-57
2024/04/20 06:53:54;;;;;;;4.63;1.30;;;9.70;99.90;;;;;;5526018;25;20454;-56
2024/04/20 06:56:23;;;;;;;3.80;1.00;;;9.70;99.90;;;;;;5525989;25;20450;-57
2024/04/20 06:58:52;;;;;;;7.30;1.17;;;9.80;99.90;;;;;;5529373;25;20513;-57
2024/04/20 07:01:20;;;;;;;7.63;1.87;;;9.80;99.90;;;;;;5529143;25;20785;-56
2024/04/20 07:03:49;;;;;;;2.70;0.90;;;9.80;99.90;;;;;;5529285;25;20563;-57
2024/04/20 07:06:17;;;;;;;1.73;0.80;;;9.80;99.90;;;;;;5529555;25;20454;-56
2024/04/20 07:08:46;;;;;;;2.10;0.90;;;9.80;99.80;;;;;;5529871;25;20566;-57
2024/04/20 07:11:17;;;;;;;7.20;1.27;;;9.80;99.20;;;;;;5529318;25;20474;-57
2024/04/20 07:13:45;;;;;;;5.20;1.30;;;9.80;99.60;;;;;;5529627;25;20450;-57
2024/04/20 07:16:14;;;;;;;6.20;0.93;;;9.80;99.90;;;;;;5529383;25;20891;-57
2024/04/20 07:18:44;;;;;;;7.97;1.20;;;9.90;99.80;;;;;;5529225;25;20501;-58
2024/04/20 07:21:12;;;;;;;1.93;0.93;;;10.00;99.40;;;;;;5529265;25;20478;-57
2024/04/20 07:23:41;;;;;;;2.87;1.17;;;10.00;99.20;;;;;;5529323;25;20442;-58
2024/04/20 07:26:09;;;;;;;4.50;0.90;;;10.00;99.30;;;;;;5529391;25;20490;-57
2024/04/20 07:28:40;;;;;;;4.77;1.40;;;10.10;99.40;;;;;;5529207;25;20454;-57
2024/04/20 07:31:09;;;;;;;5.73;1.37;;;10.20;98.90;;;;;;5529426;25;20466;-58
2024/04/20 07:33:37;;;;;;;6.17;0.77;;;10.20;98.70;;;;;;5529341;25;20457;-58
2024/04/20 07:36:07;;;;;;;3.37;0.90;;;10.20;98.50;;;;;;5529129;25;20478;-58
2024/04/20 07:38:35;;;;;;;2.60;0.80;;;10.20;98.80;;;;;;5529291;25;20998;-57
2024/04/20 07:41:04;;;;;;;4.27;1.13;;;10.20;99.00;;;;;;5528781;25;20544;-58
2024/04/20 07:43:32;;;;;;;5.20;1.10;;;10.20;98.90;;;;;;5528966;25;20487;-58
2024/04/20 07:46:04;;;;;;;4.50;0.90;;;10.20;99.10;;;;;;5529007;25;20454;-58
2024/04/20 07:48:33;;;;;;;3.77;0.87;;;10.20;98.80;;;;;;5529290;25;20498;-57
2024/04/20 07:51:02;;;;;;;4.10;0.77;;;10.10;99.10;;;;;;5528585;25;20478;-58
2024/04/20 07:53:31;;;;;;;2.90;1.10;;;10.10;99.30;;;;;;5528780;25;20943;-58
2024/04/20 07:55:59;;;;;;;5.27;1.07;;;10.10;99.30;;;;;;5528729;25;20514;-58
2024/04/20 07:58:28;;;;;;;3.70;1.97;;;10.10;98.80;;;;;;5528591;25;20553;-58
2024/04/20 08:00:56;;;;;;;6.57;1.43;;;10.10;98.90;;;;;;5528496;25;20458;-58
2024/04/20 08:03:27;;;;;;;5.90;2.90;;;10.20;98.90;;;;;;5528556;25;20501;-57
2024/04/20 08:05:56;;;;;;;3.30;1.50;;;10.20;98.60;;;;;;5528523;25;20456;-58
2024/04/20 08:08:25;;;;;;;2.57;0.90;;;10.20;98.80;;;;;;5528321;25;20946;-58
2024/04/20 08:10:53;;;;;;;4.63;1.73;;;10.30;98.70;;;;;;5528047;25;20470;-57
2024/04/20 08:13:21;;;;;;;4.60;1.30;;;10.30;98.20;;;;;;5528637;25;20461;-58
2024/04/20 08:15:50;;;;;;;2.90;1.00;;;10.20;98.20;;;;;;5528402;25;20453;-58
2024/04/20 08:18:18;;;;;;;1.80;0.73;;;10.30;98.30;;;;;;5528192;25;20509;-59
2024/04/20 08:20:54;;;;;;;3.57;1.10;;;10.40;98.00;;;;;;5528412;25;20993;-57
2024/04/20 08:23:20;;;;;;;2.80;1.03;;;10.50;98.20;;;;;;5528267;25;20453;-57
2024/04/20 08:25:50;;;;;;;2.87;1.00;;;10.50;97.50;;;;;;5528218;25;20454;-57
2024/04/20 08:28:20;;;;;;;3.23;1.10;;;10.70;97.50;;;;;;5528359;25;20304;-57
2024/04/20 08:30:48;;;;;;;2.23;0.70;;;10.80;97.20;;;;;;5528169;25;20470;-57
2024/04/20 08:33:17;;;;;;;5.57;1.03;;;10.90;97.10;;;;;;5528050;25;20851;-57
2024/04/20 08:35:45;;;;;;;2.30;0.77;;;10.90;96.80;;;;;;5528216;25;20449;-57
2024/04/20 08:38:16;;;;;;;3.80;1.00;;;11.00;96.60;;;;;;5527794;25;20555;-57
2024/04/20 08:40:44;;;;;;;6.00;1.10;;;11.00;96.20;;;;;;5527538;25;20458;-57
2024/04/20 08:43:14;;;;;;;1.07;0.80;;;11.00;96.40;;;;;;5527889;25;20991;-57
2024/04/20 08:45:45;;;;;;;3.73;1.30;;;11.10;96.40;;;;;;5527861;25;20589;-57
2024/04/20 08:48:16;;;;;;;4.67;0.93;;;11.20;95.80;;;;;;5527934;25;20976;-57
2024/04/20 08:50:47;;;;;;;2.23;0.63;;;11.30;95.30;;;;;;5527554;25;20848;-56
2024/04/20 08:53:20;;;;;;;2.10;0.77;;;11.40;95.10;;;;;;5527731;25;20785;-56
2024/04/20 08:55:51;;;;;;;5.67;1.07;;;11.50;95.00;;;;;;5527884;25;20450;-56
2024/04/20 08:58:20;;;;;;;4.37;0.80;;;11.60;94.90;;;;;;5527422;25;20442;-57
2024/04/20 09:00:52;;;;;;;4.10;1.30;;;11.70;94.40;;;;;;5527363;25;20505;-56
2024/04/20 09:03:21;;;;;;;5.83;1.27;;;12.00;94.70;;;;;;5527492;25;21003;-56
2024/04/20 09:05:50;;;;;;;1.57;0.80;;;12.20;94.20;;;;;;5527519;25;20701;-57
2024/04/20 09:08:22;;;;;;;3.93;0.80;;;12.40;93.90;;;;;;5527583;25;20935;-57
2024/04/20 09:10:50;;;;;;;8.63;1.23;;;12.50;93.20;;;;;;5527477;25;20470;-57
2024/04/20 09:13:19;;;;;;;4.30;1.20;;;12.50;92.60;;;;;;5527440;25;20466;-56
2024/04/20 09:15:48;;;;;;;7.93;1.03;;;12.60;92.50;;;;;;5527425;25;21028;-56
2024/04/20 09:18:18;;;;;;;4.07;1.30;;;12.60;92.40;;;;;;5527262;25;20559;-56
2024/04/20 09:20:48;;;;;;;1.70;0.80;;;12.70;92.00;;;;;;5525901;25;20463;-56
2024/04/20 09:23:16;;;;;;;3.20;1.13;;;12.70;92.00;;;;;;5527221;25;20713;-56
2024/04/20 09:25:53;;;;;;;3.37;0.93;;;12.90;92.30;;;;;;5527362;25;20563;-57
2024/04/20 09:28:22;;;;;;;3.53;1.00;;;13.00;92.40;;;;;;5527571;25;20449;-58
2024/04/20 09:30:53;;;;;;;4.30;0.87;;;13.10;92.90;;;;;;5527109;25;20466;-58
2024/04/20 09:33:23;;;;;;;7.30;1.20;;;13.20;93.10;;;;;;5527152;25;20896;-58
2024/04/20 09:35:51;;;;;;;5.30;1.50;;;13.10;93.20;;;;;;5527435;25;20454;-58
2024/04/20 09:38:20;;;;;;;2.63;1.10;;;13.20;93.40;;;;;;5527019;25;20621;-58
2024/04/20 09:40:55;;;;;;;2.10;1.03;;;13.10;93.00;;;;;;5527149;25;20510;-58
2024/04/20 09:43:24;;;;;;;4.70;1.47;;;13.20;93.30;;;;;;5526870;25;20803;-58
2024/04/20 09:45:54;;;;;;;6.30;1.57;;;13.40;93.60;;;;;;5526380;25;20450;-58
2024/04/20 09:48:26;;;;;;;4.60;1.50;;;13.60;94.10;;;;;;5526954;25;21000;-57
2024/04/20 09:51:01;;;;;;;5.00;1.10;;;13.70;93.50;;;;;;5526782;25;20457;-57
2024/04/20 09:53:34;;;;;;;3.87;1.07;;;14.00;93.00;;;;;;5526783;25;20445;-58
2024/04/20 09:56:06;;;;;;;4.17;1.70;;;14.30;92.50;;;;;;5527034;25;20453;-57
2024/04/20 09:58:35;;;;;;;5.60;1.70;;;14.50;91.00;;;;;;5527058;25;20438;-58
2024/04/20 10:01:04;;;;;;;4.07;1.20;;;14.60;90.70;;;;;;5526764;25;20929;-58
2024/04/20 10:03:34;;;;;;;3.00;1.40;;;14.90;91.30;;;;;;5526696;25;20498;-58
2024/04/20 10:06:04;;;;;;;3.43;1.30;;;15.50;90.40;;;;;;5526856;25;20454;-57
2024/04/20 10:08:34;;;;;;;4.83;1.43;;;15.90;88.10;;;;;;5526799;25;20950;-57
2024/04/20 10:11:05;;;;;;;3.40;1.33;;;15.90;85.00;;;;;;5526767;25;20454;-57
2024/04/20 10:13:35;;;;;;;6.27;1.53;;;16.00;83.60;;;;;;5526588;25;20980;-57
2024/04/20 10:16:05;;;;;;;4.50;1.20;;;16.00;81.00;;;;;;5526834;25;20480;-57
2024/04/20 10:18:34;;;;;;;2.40;1.13;;;15.80;80.00;;;;;;5526679;25;20458;-57
2024/04/20 10:21:02;;;;;;;2.00;0.80;;;15.50;80.90;;;;;;5526535;25;20474;-57
2024/04/20 10:23:33;;;;;;;1.40;0.53;;;15.10;81.90;;;;;;5526598;25;20498;-58
2024/04/20 10:26:01;;;;;;;3.13;0.93;;;14.90;84.20;;;;;;5526481;25;20803;-57
2024/04/20 10:28:35;;;;;;;3.70;1.27;;;15.10;87.40;;;;;;5526467;25;20443;-57
2024/04/20 10:31:05;;;;;;;2.17;1.30;;;15.40;87.50;;;;;;5526236;25;20462;-57
2024/04/20 10:33:34;;;;;;;6.67;1.30;;;15.80;86.60;;;;;;5525913;25;20547;-57
2024/04/20 10:36:06;;;;;;;4.60;1.80;;;16.00;84.70;;;;;;5526051;25;20454;-57
2024/04/20 10:38:35;;;;;;;2.97;1.40;;;16.40;83.70;;;;;;5526384;25;21055;-57
2024/04/20 10:41:14;;;;;;;5.17;1.30;;;17.20;84.60;;;;;;5526225;25;20851;-57
2024/04/20 10:43:46;;;;;;;3.60;1.17;;;17.90;76.80;;;;;;5526000;25;20484;-56
2024/04/20 10:46:19;;;;;;;2.20;1.03;;;18.20;74.30;;;;;;5525874;25;20450;-57
2024/04/20 10:48:55;;;;;;;4.10;1.30;;;18.60;73.00;;;;;;5526051;25;20454;-56
2024/04/20 10:51:26;;;;;;;5.03;1.27;;;19.60;70.10;;;;;;5525561;25;20563;-58
2024/04/20 10:54:00;;;;;;;3.87;0.90;;;19.90;64.90;;;;;;5525802;25;20991;-57
2024/04/20 10:56:30;;;;;;;2.80;0.90;;;19.60;64.70;;;;;;5525862;25;20616;-56
2024/04/20 10:59:01;;;;;;;2.73;0.87;;;18.90;61.60;;;;;;5525742;25;20446;-57
2024/04/20 11:01:29;;;;;;;3.40;1.07;;;18.20;63.80;;;;;;5525724;25;21011;-57
2024/04/20 11:03:58;;;;;;;4.00;0.83;;;17.40;64.40;;;;;;5525732;25;20458;-57
2024/04/20 11:06:26;;;;;;;2.93;0.90;;;16.90;68.90;;;;;;5525551;25;20454;-56
2024/04/20 11:08:55;;;;;;;1.33;0.90;;;17.30;74.10;;;;;;5525893;25;20462;-57
2024/04/20 11:11:23;;;;;;;3.53;1.00;;;18.30;69.80;;;;;;5525361;25;20508;-56
2024/04/20 11:14:03;;;;;;;2.30;1.13;;;19.50;66.20;;;;;;5525589;25;20800;-57
2024/04/20 11:16:33;;;;;;;3.10;1.20;;;20.80;62.60;;;;;;5525681;25;20510;-57
2024/04/20 11:19:02;;;;;;;1.30;0.70;;;20.90;57.10;;;;;;5525711;25;20871;-57
2024/04/20 11:21:35;;;;;;;4.70;1.00;;;20.40;57.10;;;;;;5525050;25;20500;-56
2024/04/20 11:24:04;;;;;;;1.77;1.30;;;19.80;58.50;;;;;;5525312;25;20856;-57
2024/04/20 11:26:32;;;;;;;4.13;1.10;;;19.00;60.00;;;;;;5525017;25;20494;-56
2024/04/20 11:29:04;;;;;;;2.70;0.90;;;18.40;62.60;;;;;;5525207;25;20453;-56
2024/04/20 11:31:33;;;;;;;4.07;1.37;;;17.70;64.90;;;;;;5525203;25;20466;-57
2024/04/20 11:34:01;;;;;;;1.50;0.87;;;17.10;66.90;;;;;;5525270;25;20537;-56
2024/04/20 11:36:31;;;;;;;2.60;0.80;;;16.60;68.30;;;;;;5525338;25;20502;-56
2024/04/20 11:39:09;;;;;;;4.90;1.20;;;16.20;71.00;;;;;;5525272;25;20442;-56
2024/04/20 11:41:38;;;;;;;3.10;1.13;;;16.40;75.70;;;;;;5525140;25;20532;-56
2024/04/20 11:44:09;;;;;;;2.53;0.93;;;17.60;75.90;;;;;;5525946;25;20449;-56
2024/04/20 11:46:41;;;;;;;2.10;0.67;;;19.00;67.10;;;;;;5528670;25;20454;-56
2024/04/20 11:49:13;;;;;;;2.20;1.10;;;19.80;62.40;;;;;;5528872;25;20442;-56
2024/04/20 11:54:43;;;;;;;2.20;0.53;;;22.30;53.40;;;;;;5531900;26;20825;-56
2024/04/20 11:57:12;;;;;;;1.17;0.60;;;23.30;50.80;;;;;;5528674;25;20559;-56
2024/04/20 11:59:43;;;;;;;0.60;0.43;;;23.80;48.50;;;;;;5528664;25;20979;-56
2024/04/20 12:02:11;;;;;;;3.80;0.90;;;24.50;48.00;;;;;;5528249;25;20449;-56
2024/04/20 12:04:40;;;;;;;2.77;0.80;;;24.70;41.90;;;;;;5528679;25;20438;-56
2024/04/20 12:07:08;;;;;;;2.37;0.80;;;24.90;43.90;;;;;;5528314;25;20502;-56
2024/04/20 12:09:36;;;;;;;1.43;0.60;;;25.40;43.30;;;;;;5528217;25;20457;-56
2024/04/20 12:12:05;;;;;;;2.60;0.87;;;26.00;41.20;;;;;;5528401;25;20453;-56
2024/04/20 12:14:34;;;;;;;3.80;1.20;;;26.40;38.90;;;;;;5528436;25;20559;-57
2024/04/20 12:17:05;;;;;;;4.53;1.00;;;26.60;36.50;;;;;;5528331;25;20461;-56
2024/04/20 12:19:33;;;;;;;1.40;0.70;;;26.80;37.70;;;;;;5528281;25;20498;-56
2024/04/20 12:22:03;;;;;;;3.07;1.20;;;26.60;36.20;;;;;;5528526;25;20559;-56
2024/04/20 12:24:31;;;;;;;1.87;1.00;;;25.90;36.50;;;;;;5528002;25;20497;-56
2024/04/20 12:27:01;;;;;;;1.13;0.80;;;24.90;39.30;;;;;;5528317;25;20446;-56
2024/04/20 12:29:29;;;;;;;1.50;0.70;;;23.80;39.00;;;;;;5528093;25;20534;-56
2024/04/20 12:31:58;;;;;;;1.93;0.80;;;22.50;40.40;;;;;;5528241;25;20887;-56
2024/04/20 12:34:29;;;;;;;4.80;1.73;;;21.40;42.20;;;;;;5528177;25;20446;-56
2024/04/20 12:36:57;;;;;;;4.33;1.83;;;20.30;43.90;;;;;;5528058;25;20446;-56
2024/04/20 12:39:23;;;;;;;3.53;0.97;;;19.40;46.10;;;;;;5527515;25;20848;-55
2024/04/20 12:41:52;;;;;;;5.60;1.20;;;18.60;47.70;;;;;;5527720;25;20585;-56
2024/04/20 12:44:20;;;;;;;2.87;1.07;;;18.00;49.30;;;;;;5527740;25;20290;-57
2024/04/20 12:46:48;;;;;;;4.13;1.00;;;18.00;51.50;;;;;;5527896;25;20454;-56
2024/04/20 12:49:17;;;;;;;2.00;0.73;;;18.20;51.20;;;;;;5527912;25;20453;-56
2024/04/20 12:51:48;;;;;;;3.13;1.40;;;18.40;51.30;;;;;;5527764;25;20579;-56
2024/04/20 12:54:16;;;;;;;4.90;1.47;;;19.10;52.60;;;;;;5527865;25;20454;-56
2024/04/20 12:56:46;;;;;;;3.50;1.00;;;20.40;52.00;;;;;;5527426;25;20949;-56
2024/04/20 12:59:14;;;;;;;1.30;1.00;;;22.10;49.80;;;;;;5527983;25;20462;-57
2024/04/20 13:01:43;;;;;;;2.10;0.70;;;23.20;43.60;;;;;;5527864;25;21128;-57
2024/04/20 13:04:11;;;;;;;4.37;3.97;;;23.10;40.70;;;;;;5527682;25;20580;-56
2024/04/20 13:06:41;;;;;;;3.30;2.40;;;22.70;40.60;;;;;;5527466;25;20576;-56
2024/04/20 13:09:14;;;;;;;2.50;0.90;;;22.20;39.50;;;;;;5527966;25;20474;-56